Time;durP1;ratioP1;P1;durP2;ratioP2;P2;SDS_P1;SDS_P2;PMS_P1;PMS_P2;Temp;Humidity;BMP_temperature;BMP_pressure;BME280_temperature;BME280_humidity;BME280_pressure;Samples;Min_cycle;Max_cycle;Signal;HPM_P1;HPM_P2
2021/12/07 00:01:23;;;;;;;12.52;8.02;;;9.00;99.90;;;;;;5114594;28;20043;-68
2021/12/07 00:03:49;;;;;;;11.32;7.15;;;9.20;99.90;;;;;;5113956;28;20396;-67
2021/12/07 00:06:15;;;;;;;11.55;7.25;;;;;;;;;;5112062;28;20039;-67
2021/12/07 00:08:41;;;;;;;11.80;7.60;;;9.10;99.90;;;;;;5113184;28;20062;-65
2021/12/07 00:11:08;;;;;;;12.63;7.15;;;8.90;99.90;;;;;;5111680;28;20039;-66
2021/12/07 00:13:37;;;;;;;12.70;8.07;;;9.20;99.90;;;;;;5113460;28;20047;-66
2021/12/07 00:16:04;;;;;;;12.10;7.80;;;;;;;;;;5113640;28;20137;-68
2021/12/07 00:18:30;;;;;;;9.75;6.93;;;9.20;99.10;;;;;;5113256;28;20039;-67
2021/12/07 00:20:55;;;;;;;12.02;8.10;;;8.80;99.90;;;;;;5112032;28;20404;-67
2021/12/07 00:23:21;;;;;;;12.93;7.28;;;9.10;99.90;;;;;;5112240;28;20061;-66
2021/12/07 00:25:47;;;;;;;11.68;7.40;;;9.10;99.90;;;;;;5113351;28;20067;-66
2021/12/07 00:28:13;;;;;;;11.30;7.30;;;9.30;99.10;;;;;;5113831;28;20039;-67
2021/12/07 00:30:39;;;;;;;11.95;7.65;;;;;;;;;;5113745;28;20496;-67
2021/12/07 00:35:53;;;;;;;12.07;7.68;;;9.00;99.90;;;;;;5053934;28;20045;-67
2021/12/07 00:38:20;;;;;;;11.80;7.50;;;;;;;;;;5069288;28;20513;-67
2021/12/07 00:40:46;;;;;;;12.55;7.63;;;9.10;99.90;;;;;;5065691;28;20055;-67
2021/12/07 00:43:12;;;;;;;10.48;6.93;;;9.20;99.90;;;;;;5069354;28;20522;-66
2021/12/07 00:45:39;;;;;;;10.82;7.28;;;9.00;99.90;;;;;;5071249;28;20052;-68
2021/12/07 00:48:06;;;;;;;12.73;7.40;;;9.20;99.90;;;;;;5066279;28;20165;-59
2021/12/07 00:50:32;;;;;;;10.93;7.18;;;9.00;99.90;;;;;;5059290;28;20045;-67
2021/12/07 00:53:02;;;;;;;10.63;7.25;;;9.10;99.90;;;;;;5069536;28;20073;-68
2021/12/07 00:55:28;;;;;;;13.80;7.63;;;;;;;;;;5061015;28;20098;-66
2021/12/07 00:57:57;;;;;;;11.68;6.88;;;;;;;;;;5050585;28;20112;-67
2021/12/07 01:00:25;;;;;;;11.60;7.30;;;;;;;;;;5051685;28;20445;-66
2021/12/07 01:02:53;;;;;;;11.23;6.95;;;9.20;99.90;;;;;;5066475;28;20041;-68
2021/12/07 01:05:26;;;;;;;10.98;6.75;;;;;;;;;;5073846;28;20136;-65
2021/12/07 01:26:54;;;;;;;10.65;7.05;;;;;;;;;;5115979;28;20048;-67
2021/12/07 01:29:23;;;;;;;10.40;7.07;;;9.00;99.90;;;;;;5116594;28;20058;-66
2021/12/07 01:35:15;;;;;;;12.60;7.70;;;9.20;99.90;;;;;;5091996;28;20434;-66
2021/12/07 01:40:54;;;;;;;11.90;7.10;;;9.00;99.90;;;;;;5072446;28;20040;-67
2021/12/07 01:46:38;;;;;;;10.50;6.50;;;9.00;99.90;;;;;;5072964;28;20070;-67
2021/12/07 01:59:50;;;;;;;11.70;6.53;;;9.00;99.80;;;;;;5072127;28;20127;-67
2021/12/07 02:02:16;;;;;;;11.43;7.15;;;9.00;99.90;;;;;;5073036;28;20468;-67
2021/12/07 02:04:43;;;;;;;11.23;6.85;;;;;;;;;;5073089;28;20056;-67
2021/12/07 02:07:09;;;;;;;11.10;6.65;;;8.80;99.90;;;;;;5072015;28;20032;-67
2021/12/07 02:09:36;;;;;;;11.23;7.10;;;9.10;99.90;;;;;;5072357;28;20041;-66
2021/12/07 02:12:03;;;;;;;12.73;7.72;;;9.00;99.80;;;;;;5106744;28;20052;-67
2021/12/07 02:14:30;;;;;;;10.68;6.93;;;9.00;99.80;;;;;;5115403;28;20110;-67
2021/12/07 02:17:16;;;;;;;10.90;6.88;;;9.00;98.10;;;;;;5115605;28;20429;-68
2021/12/07 02:19:41;;;;;;;11.40;6.97;;;9.00;99.90;;;;;;5115266;28;20048;-67
2021/12/07 02:22:07;;;;;;;11.50;7.18;;;8.60;99.70;;;;;;5115169;28;20040;-66
2021/12/07 02:24:33;;;;;;;10.40;6.90;;;9.00;99.80;;;;;;5115056;28;20039;-67
2021/12/07 02:27:00;;;;;;;12.35;7.32;;;8.80;99.90;;;;;;5114019;28;20078;-65
2021/12/07 02:29:26;;;;;;;10.45;6.28;;;;;;;;;;5113961;28;20051;-67
2021/12/07 02:31:52;;;;;;;10.65;6.30;;;8.90;99.80;;;;;;5114688;28;20044;-68
2021/12/07 02:34:19;;;;;;;11.57;6.72;;;;;;;;;;5114932;28;20040;-67
2021/12/07 02:36:45;;;;;;;12.38;7.53;;;;;;;;;;5114901;28;20104;-67
2021/12/07 02:39:11;;;;;;;10.57;6.30;;;9.20;99.90;;;;;;5113928;27;20096;-68
2021/12/07 02:41:37;;;;;;;11.27;6.57;;;;;;;;;;5115492;28;20384;-67
2021/12/07 02:44:06;;;;;;;10.35;6.95;;;9.00;99.70;;;;;;5114343;28;20046;-68
2021/12/07 02:46:35;;;;;;;10.43;6.72;;;8.90;99.70;;;;;;5114410;28;20043;-66
2021/12/07 02:49:00;;;;;;;12.18;7.55;;;9.00;99.70;;;;;;5113352;28;20055;-68
2021/12/07 02:51:26;;;;;;;12.30;7.63;;;9.10;99.70;;;;;;5114279;28;20028;-67
2021/12/07 02:53:54;;;;;;;11.73;7.20;;;9.10;98.80;;;;;;5112788;28;20188;-68
2021/12/07 02:56:20;;;;;;;10.10;6.65;;;9.30;99.90;;;;;;5114357;28;20055;-68
2021/12/07 02:58:45;;;;;;;10.93;7.05;;;8.50;99.70;;;;;;5113681;28;20039;-66
2021/12/07 03:01:18;;;;;;;10.80;6.90;;;9.10;99.80;;;;;;5114226;28;20389;-66
2021/12/07 03:03:56;;;;;;;9.80;6.53;;;8.90;99.70;;;;;;5114865;28;20032;-67
2021/12/07 03:06:34;;;;;;;10.48;6.65;;;8.90;99.70;;;;;;5114013;28;20100;-68
2021/12/07 03:28:00;;;;;;;10.18;6.40;;;8.80;98.60;;;;;;5092666;28;20102;-68
2021/12/07 03:30:26;;;;;;;10.60;6.60;;;8.90;99.60;;;;;;5110591;28;20032;-67
2021/12/07 03:32:51;;;;;;;10.60;6.80;;;9.20;99.70;;;;;;5113746;28;20035;-68
2021/12/07 03:35:18;;;;;;;10.30;6.70;;;;;;;;;;5114349;28;20551;-65
2021/12/07 03:37:43;;;;;;;9.27;5.95;;;8.80;99.50;;;;;;5113975;28;20031;-59
2021/12/07 03:40:10;;;;;;;11.02;6.63;;;9.10;98.60;;;;;;5113815;28;20059;-66
2021/12/07 03:42:36;;;;;;;10.05;6.25;;;8.90;99.60;;;;;;5113862;28;20043;-68
2021/12/07 03:45:04;;;;;;;9.32;6.45;;;8.90;99.50;;;;;;5113685;28;20180;-67
2021/12/07 03:47:29;;;;;;;9.60;6.50;;;8.90;99.50;;;;;;5113680;28;20039;-58
2021/12/07 03:49:55;;;;;;;10.32;6.82;;;8.90;99.50;;;;;;5113816;28;20396;-59
2021/12/07 03:52:21;;;;;;;11.25;6.70;;;;;;;;;;5113785;28;20050;-58
2021/12/07 03:54:47;;;;;;;10.60;6.95;;;;;;;;;;5113242;28;20514;-68
2021/12/07 03:57:14;;;;;;;9.45;5.88;;;;;;;;;;5112794;28;20401;-67
2021/12/07 03:59:39;;;;;;;10.50;6.25;;;8.90;99.50;;;;;;5113442;28;20081;-67
2021/12/07 04:02:07;;;;;;;9.50;6.03;;;8.80;99.50;;;;;;5113413;28;20151;-65
2021/12/07 04:04:33;;;;;;;9.68;6.32;;;;;;;;;;5113318;28;20397;-68
2021/12/07 04:06:59;;;;;;;9.85;6.45;;;8.90;99.50;;;;;;5113375;28;20375;-67
2021/12/07 04:09:24;;;;;;;9.68;6.20;;;9.00;99.60;;;;;;5113479;28;20130;-67
2021/12/07 04:11:50;;;;;;;9.32;6.15;;;8.90;99.50;;;;;;5113489;28;20126;-66
2021/12/07 04:14:16;;;;;;;9.73;6.53;;;8.90;99.40;;;;;;5112982;28;20078;-66
2021/12/07 04:16:42;;;;;;;9.32;6.30;;;8.60;99.50;;;;;;5112762;28;20108;-67
2021/12/07 04:19:08;;;;;;;9.60;6.30;;;8.90;99.60;;;;;;5113468;28;20075;-68
2021/12/07 04:21:33;;;;;;;9.93;6.38;;;9.00;99.60;;;;;;5112446;28;20051;-67
2021/12/07 04:23:59;;;;;;;10.00;6.40;;;8.90;99.50;;;;;;5111381;28;20044;-67
2021/12/07 04:26:25;;;;;;;9.13;6.00;;;;;;;;;;5113133;28;20044;-65
2021/12/07 04:28:51;;;;;;;9.70;6.35;;;9.00;99.30;;;;;;5108757;28;20122;-67
2021/12/07 04:31:17;;;;;;;9.68;6.15;;;9.10;99.50;;;;;;5113311;28;20451;-68
2021/12/07 04:33:43;;;;;;;9.70;6.25;;;9.00;99.50;;;;;;5111989;28;20047;-68
2021/12/07 04:36:10;;;;;;;9.50;6.32;;;;;;;;;;5113177;28;20118;-64
2021/12/07 04:38:36;;;;;;;8.20;5.95;;;8.80;99.60;;;;;;5111511;28;20051;-67
2021/12/07 04:41:01;;;;;;;9.25;6.28;;;8.90;98.60;;;;;;5115531;28;20054;-67
2021/12/07 04:43:27;;;;;;;10.27;6.20;;;8.90;99.60;;;;;;5117489;28;20043;-67
2021/12/07 04:46:13;;;;;;;10.30;6.60;;;9.20;98.40;;;;;;5117526;28;20063;-68
2021/12/07 04:59:32;;;;;;;9.40;6.53;;;9.00;99.40;;;;;;5073703;28;20049;-68
2021/12/07 05:01:58;;;;;;;9.70;6.22;;;;;;;;;;5057181;28;20048;-68
2021/12/07 05:04:28;;;;;;;8.77;5.85;;;8.90;99.70;;;;;;5057479;28;20036;-68
2021/12/07 05:07:01;;;;;;;10.23;6.70;;;8.90;99.70;;;;;;5072535;28;20075;-68
2021/12/07 05:09:42;;;;;;;;;;;8.90;98.70;;;;;;5074103;28;20102;-68
2021/12/07 05:14:39;;;;;;;9.75;6.10;;;9.10;99.90;;;;;;5073575;28;20048;-68
2021/12/07 05:38:37;;;;;;;9.10;6.15;;;;;;;;;;5100156;28;20051;-59
2021/12/07 05:41:06;;;;;;;8.98;6.13;;;9.20;98.90;;;;;;5115199;28;20047;-58
2021/12/07 05:43:32;;;;;;;8.48;5.60;;;9.00;99.80;;;;;;5115220;28;20032;-59
2021/12/07 05:45:57;;;;;;;9.90;6.40;;;9.10;99.80;;;;;;5115758;28;20514;-58
2021/12/07 05:48:23;;;;;;;8.77;6.03;;;9.00;99.80;;;;;;5115419;28;20135;-57
2021/12/07 05:50:49;;;;;;;11.05;6.80;;;;;;;;;;5115584;28;20044;-59
2021/12/07 05:53:15;;;;;;;10.15;6.78;;;;;;;;;;5115316;28;20040;-68
2021/12/07 05:55:41;;;;;;;9.52;6.35;;;;;;;;;;5115522;28;20040;-68
2021/12/07 05:58:08;;;;;;;10.32;6.22;;;9.00;99.90;;;;;;5116626;28;20036;-68
2021/12/07 06:00:35;;;;;;;9.43;6.28;;;9.10;98.60;;;;;;5110860;28;20040;-68
2021/12/07 06:03:07;;;;;;;9.70;6.18;;;9.10;98.60;;;;;;5115393;28;20040;-67
2021/12/07 06:05:33;;;;;;;9.52;6.57;;;8.80;98.20;;;;;;5114865;28;20051;-67
2021/12/07 06:07:59;;;;;;;10.32;6.38;;;;;;;;;;5115483;28;20069;-68
2021/12/07 06:10:25;;;;;;;9.98;6.43;;;9.00;99.80;;;;;;5113605;28;20047;-67
2021/12/07 06:12:51;;;;;;;9.88;6.40;;;;;;;;;;5115500;28;20401;-68
2021/12/07 06:15:20;;;;;;;10.05;6.40;;;9.20;99.90;;;;;;5114820;28;20050;-67
2021/12/07 06:17:46;;;;;;;8.98;6.07;;;8.80;99.80;;;;;;5115310;28;20047;-59
2021/12/07 06:20:12;;;;;;;10.82;6.72;;;9.00;99.00;;;;;;5115633;28;20366;-58
2021/12/07 06:22:38;;;;;;;9.85;6.25;;;8.80;99.90;;;;;;5114590;28;20039;-59
2021/12/07 06:25:04;;;;;;;8.82;6.28;;;8.60;99.90;;;;;;5114957;28;20042;-59
2021/12/07 06:27:30;;;;;;;9.35;5.90;;;9.00;99.90;;;;;;5114413;28;20093;-59
2021/12/07 06:29:57;;;;;;;9.45;6.18;;;;;;;;;;5114821;28;20048;-59
2021/12/07 06:32:23;;;;;;;9.00;6.15;;;9.00;99.90;;;;;;5115364;28;20366;-58
2021/12/07 06:34:49;;;;;;;9.38;6.25;;;9.00;99.90;;;;;;5114559;28;20066;-59
2021/12/07 06:37:15;;;;;;;9.25;6.15;;;9.00;99.90;;;;;;5114090;28;20489;-59
2021/12/07 06:39:41;;;;;;;9.27;6.00;;;9.00;99.90;;;;;;5113150;28;20055;-59
2021/12/07 06:42:07;;;;;;;8.85;5.78;;;;;;;;;;5114941;28;20047;-58
2021/12/07 06:44:33;;;;;;;9.90;6.05;;;9.00;99.90;;;;;;5114879;28;20040;-58
2021/12/07 06:46:59;;;;;;;9.88;6.22;;;;;;;;;;5114239;28;20126;-60
2021/12/07 06:49:25;;;;;;;9.27;6.15;;;9.00;99.90;;;;;;5114203;28;20055;-59
2021/12/07 06:51:51;;;;;;;9.80;6.13;;;9.10;99.90;;;;;;5113430;28;20477;-58
2021/12/07 06:54:17;;;;;;;10.52;5.90;;;8.90;99.40;;;;;;5114284;28;20077;-68
2021/12/07 06:56:43;;;;;;;10.75;6.60;;;;;;;;;;5114448;28;20514;-68
2021/12/07 06:59:09;;;;;;;7.88;5.35;;;9.00;99.90;;;;;;5113749;28;20043;-66
2021/12/07 07:01:35;;;;;;;9.60;5.75;;;9.00;99.90;;;;;;5113862;28;20403;-68
2021/12/07 07:04:01;;;;;;;8.82;5.72;;;;;;;;;;5114497;28;20396;-59
2021/12/07 07:06:27;;;;;;;8.05;5.43;;;9.00;99.90;;;;;;5113833;28;20043;-58
2021/12/07 07:08:53;;;;;;;8.73;5.82;;;9.10;99.90;;;;;;5113129;28;20043;-59
2021/12/07 07:11:18;;;;;;;9.23;5.90;;;9.00;99.90;;;;;;5114012;28;20051;-58
2021/12/07 07:13:47;;;;;;;8.27;5.53;;;9.10;99.90;;;;;;5114057;28;20040;-58
2021/12/07 07:16:14;;;;;;;8.98;5.95;;;;;;;;;;5114028;28;20035;-59
2021/12/07 07:18:39;;;;;;;8.65;5.72;;;8.90;99.90;;;;;;5114002;28;20047;-59
2021/12/07 07:21:06;;;;;;;8.73;5.68;;;8.90;99.40;;;;;;5113147;28;20084;-59
2021/12/07 07:23:31;;;;;;;8.45;5.82;;;9.10;99.90;;;;;;5113930;28;20070;-60
2021/12/07 07:25:57;;;;;;;9.50;5.80;;;8.80;99.90;;;;;;5113324;28;20109;-59
2021/12/07 07:28:24;;;;;;;8.30;5.32;;;9.00;99.90;;;;;;5114079;28;20050;-59
2021/12/07 07:30:50;;;;;;;10.65;6.07;;;;;;;;;;5112859;28;20051;-62
2021/12/07 07:33:16;;;;;;;10.05;5.80;;;9.00;99.50;;;;;;5114382;28;20446;-59
2021/12/07 07:35:42;;;;;;;7.80;5.45;;;8.70;99.90;;;;;;5113930;28;20062;-58
2021/12/07 07:38:08;;;;;;;10.48;6.07;;;9.10;99.90;;;;;;5114084;28;20039;-59
2021/12/07 07:40:34;;;;;;;14.82;6.30;;;;;;;;;;5111026;28;20131;-59
2021/12/07 07:43:00;;;;;;;8.70;5.45;;;8.90;99.40;;;;;;5113713;28;20126;-59
2021/12/07 07:45:26;;;;;;;10.10;5.63;;;;;;;;;;5113939;28;20131;-62
2021/12/07 07:47:52;;;;;;;7.72;5.35;;;;;;;;;;5105510;28;20088;-67
2021/12/07 07:50:18;;;;;;;9.23;5.78;;;8.70;99.90;;;;;;5106835;28;20508;-66
2021/12/07 07:52:43;;;;;;;8.95;5.95;;;8.90;99.90;;;;;;5112532;28;20089;-68
2021/12/07 07:55:10;;;;;;;9.50;5.35;;;;;;;;;;5112801;28;20051;-67
2021/12/07 07:57:36;;;;;;;10.13;5.50;;;;;;;;;;5102429;28;20032;-61
2021/12/07 08:00:04;;;;;;;8.95;5.97;;;8.70;99.90;;;;;;5112651;28;20396;-62
2021/12/07 08:02:30;;;;;;;10.82;5.82;;;;;;;;;;5105521;28;20078;-67
2021/12/07 08:04:56;;;;;;;8.95;5.13;;;9.20;99.90;;;;;;5112464;28;20039;-68
2021/12/07 08:07:22;;;;;;;8.25;5.82;;;9.00;99.90;;;;;;5093450;28;20393;-67
2021/12/07 08:09:48;;;;;;;7.85;4.85;;;;;;;;;;5108331;28;20051;-66
2021/12/07 08:12:14;;;;;;;10.13;5.40;;;;;;;;;;5112754;28;20492;-60
2021/12/07 08:14:40;;;;;;;10.07;5.30;;;9.10;99.90;;;;;;5114802;28;20074;-68
2021/12/07 08:17:05;;;;;;;10.23;5.20;;;9.00;99.90;;;;;;5116565;28;20079;-68
2021/12/07 08:19:32;;;;;;;7.40;4.53;;;8.90;99.90;;;;;;5117613;28;20036;-68
2021/12/07 08:21:57;;;;;;;8.40;5.13;;;9.00;99.90;;;;;;5117227;28;20040;-58
2021/12/07 08:24:24;;;;;;;8.77;4.50;;;;;;;;;;5113383;28;20039;-69
2021/12/07 08:26:49;;;;;;;8.73;4.72;;;8.80;99.90;;;;;;5106969;28;20513;-68
2021/12/07 08:29:16;;;;;;;9.00;4.75;;;;;;;;;;5114982;28;20065;-67
2021/12/07 08:31:43;;;;;;;7.55;4.80;;;9.00;99.40;;;;;;5117496;28;20043;-68
2021/12/07 08:34:08;;;;;;;8.90;4.60;;;9.40;99.90;;;;;;5113229;28;20047;-68
2021/12/07 08:36:35;;;;;;;9.77;4.80;;;;;;;;;;5116446;28;20048;-67
2021/12/07 08:39:00;;;;;;;8.88;4.72;;;8.80;99.90;;;;;;5116193;28;20374;-68
2021/12/07 08:41:27;;;;;;;8.13;4.30;;;;;;;;;;5116390;28;20130;-60
2021/12/07 08:43:52;;;;;;;7.38;4.10;;;9.40;99.90;;;;;;5116370;28;20046;-60
2021/12/07 08:46:18;;;;;;;8.23;5.10;;;9.20;99.90;;;;;;5115183;28;20043;-60
2021/12/07 08:48:44;;;;;;;7.47;4.40;;;9.10;99.90;;;;;;5117493;28;20046;-61
2021/12/07 08:51:11;;;;;;;8.77;4.47;;;9.30;99.90;;;;;;5105958;28;20462;-68
2021/12/07 08:53:43;;;;;;;8.23;4.47;;;9.40;99.90;;;;;;5115929;28;20477;-69
2021/12/07 09:01:38;;;;;;;7.63;4.57;;;;;;;;;;5115649;28;20040;-70
2021/12/07 09:04:04;;;;;;;7.72;4.43;;;9.10;99.90;;;;;;5111966;28;20040;-69
2021/12/07 09:06:30;;;;;;;7.90;4.45;;;9.20;99.90;;;;;;5116307;28;20378;-68
2021/12/07 09:08:56;;;;;;;7.15;4.68;;;9.10;99.90;;;;;;5116075;28;20117;-69
2021/12/07 09:11:23;;;;;;;9.75;4.43;;;;;;;;;;5116571;27;20052;-69
2021/12/07 09:13:48;;;;;;;9.88;4.50;;;9.10;99.90;;;;;;5116569;28;20126;-69
2021/12/07 09:16:15;;;;;;;7.53;4.18;;;8.80;99.90;;;;;;5116881;28;20126;-67
2021/12/07 09:18:42;;;;;;;9.57;4.85;;;;;;;;;;5115872;28;20526;-68
2021/12/07 09:21:08;;;;;;;9.52;4.47;;;9.20;99.90;;;;;;5115632;28;20043;-69
2021/12/07 09:23:33;;;;;;;8.35;4.55;;;9.30;99.90;;;;;;5114837;28;20040;-69
2021/12/07 09:26:00;;;;;;;8.38;4.57;;;;;;;;;;5116749;28;20047;-69
2021/12/07 09:28:25;;;;;;;7.53;4.45;;;9.00;99.90;;;;;;5115857;28;20047;-69
2021/12/07 09:30:52;;;;;;;8.88;4.70;;;9.50;99.90;;;;;;5114817;28;20039;-60
2021/12/07 09:33:22;;;;;;;10.20;4.57;;;9.30;99.90;;;;;;5114286;28;20050;-69
2021/12/07 09:35:48;;;;;;;8.63;4.80;;;9.30;99.00;;;;;;5115475;28;20047;-69
2021/12/07 09:38:15;;;;;;;7.50;4.47;;;;;;;;;;5116019;28;20373;-62
2021/12/07 09:40:42;;;;;;;7.75;4.43;;;9.30;99.90;;;;;;5114805;28;20052;-60
2021/12/07 09:43:08;;;;;;;9.93;4.75;;;9.30;99.90;;;;;;5115030;28;20073;-60
2021/12/07 09:45:34;;;;;;;10.20;4.78;;;9.20;99.90;;;;;;5115290;28;20122;-68
2021/12/07 09:48:00;;;;;;;8.77;4.40;;;;;;;;;;5101667;28;20040;-59
2021/12/07 09:50:26;;;;;;;9.23;4.00;;;9.30;99.90;;;;;;5094373;28;20493;-59
2021/12/07 09:52:52;;;;;;;8.98;4.63;;;;;;;;;;5095507;28;20047;-59
2021/12/07 09:55:18;;;;;;;8.35;4.03;;;;;;;;;;5095785;28;20044;-66
2021/12/07 09:57:45;;;;;;;9.45;4.57;;;9.40;99.90;;;;;;5095469;28;20055;-70
2021/12/07 10:00:13;;;;;;;7.75;4.18;;;9.40;99.70;;;;;;5095631;28;20044;-68
2021/12/07 10:02:39;;;;;;;8.27;4.30;;;;;;;;;;5095351;28;20485;-69
2021/12/07 10:05:05;;;;;;;10.18;4.35;;;9.40;99.90;;;;;;5095565;28;20058;-68
2021/12/07 10:07:31;;;;;;;805.53;64.45;;;9.40;99.90;;;;;;5094160;28;20500;-69
2021/12/07 10:09:57;;;;;;;302.33;24.25;;;;;;;;;;5095163;28;20052;-69
2021/12/07 10:12:24;;;;;;;160.18;14.65;;;9.60;99.60;;;;;;5095416;28;20044;-60
2021/12/07 10:14:50;;;;;;;123.18;11.77;;;9.60;99.90;;;;;;5100500;28;20468;-66
2021/12/07 10:17:21;;;;;;;94.22;11.40;;;9.70;99.90;;;;;;5112028;28;20067;-67
2021/12/07 10:19:48;;;;;;;82.13;9.80;;;9.80;99.90;;;;;;5114208;28;20043;-66
2021/12/07 10:22:18;;;;;;;83.90;9.10;;;9.80;99.90;;;;;;5115471;28;20100;-68
2021/12/07 10:24:48;;;;;;;63.03;7.97;;;10.00;99.40;;;;;;5115655;28;20039;-59
2021/12/07 10:27:33;;;;;;;50.72;8.27;;;10.00;99.10;;;;;;5115478;28;20044;-60
2021/12/07 10:30:00;;;;;;;50.20;7.65;;;10.00;99.90;;;;;;5115795;28;20168;-62
2021/12/07 10:32:26;;;;;;;56.20;7.75;;;10.00;99.90;;;;;;5114148;28;20047;-67
2021/12/07 10:34:52;;;;;;;54.65;6.95;;;10.00;99.90;;;;;;5115423;27;20380;-67
2021/12/07 10:37:18;;;;;;;44.50;6.53;;;;;;;;;;5115121;28;20051;-66
2021/12/07 10:39:51;;;;;;;38.53;6.63;;;10.30;99.30;;;;;;5114832;28;20060;-66
2021/12/07 10:42:24;;;;;;;33.17;6.07;;;10.10;99.90;;;;;;5114931;28;20132;-67
2021/12/07 10:44:50;;;;;;;31.52;5.90;;;10.20;99.60;;;;;;5115098;28;20126;-67
2021/12/07 10:47:18;;;;;;;30.48;5.65;;;10.20;99.90;;;;;;5115240;28;20110;-67
2021/12/07 10:49:46;;;;;;;20.60;5.75;;;10.00;99.90;;;;;;5115201;28;20054;-67
2021/12/07 10:52:28;;;;;;;21.38;5.78;;;10.30;99.90;;;;;;5115111;28;20052;-67
2021/12/07 10:54:58;;;;;;;27.05;5.50;;;10.50;99.60;;;;;;5115078;28;20051;-67
2021/12/07 10:57:30;;;;;;;18.33;5.75;;;10.30;98.70;;;;;;5115838;28;20046;-59
2021/12/07 11:00:10;;;;;;;17.60;5.57;;;10.40;98.60;;;;;;5114818;28;20047;-59
2021/12/07 11:02:37;;;;;;;17.08;5.45;;;10.30;99.90;;;;;;5114659;28;20093;-60
2021/12/07 11:05:08;;;;;;;18.95;5.13;;;10.70;99.90;;;;;;5114862;28;20369;-61
2021/12/07 11:07:35;;;;;;;12.88;4.43;;;10.60;99.80;;;;;;5113202;28;20403;-61
2021/12/07 11:10:16;;;;;;;17.42;3.85;;;10.80;99.90;;;;;;5114775;28;20461;-60
2021/12/07 11:12:49;;;;;;;12.32;4.40;;;10.50;99.90;;;;;;5114163;28;20039;-60
2021/12/07 11:15:22;;;;;;;13.25;4.38;;;10.40;99.10;;;;;;5113331;28;20389;-65
2021/12/07 11:17:48;;;;;;;12.13;4.10;;;10.70;99.50;;;;;;5114647;28;20035;-65
2021/12/07 11:20:14;;;;;;;12.13;4.45;;;10.80;99.90;;;;;;5114104;28;20054;-65
2021/12/07 11:22:44;;;;;;;14.57;4.03;;;10.90;99.90;;;;;;5113962;28;20040;-65
2021/12/07 11:25:10;;;;;;;11.07;4.30;;;10.70;99.90;;;;;;5113742;28;20055;-65
2021/12/07 11:30:28;;;;;;;16.15;4.93;;;11.00;99.90;;;;;;5115042;28;20389;-60
2021/12/07 11:32:56;;;;;;;;;;;11.10;99.10;;;;;;5096990;28;20126;-67
2021/12/07 11:35:28;;;;;;;11.77;4.13;;;11.10;99.90;;;;;;5114349;28;19927;-69
2021/12/07 11:37:55;;;;;;;13.02;3.72;;;11.30;98.60;;;;;;5113472;28;20051;-69
2021/12/07 11:40:30;;;;;;;15.00;3.92;;;11.20;99.90;;;;;;5113571;28;20108;-69
2021/12/07 11:42:56;;;;;;;14.02;4.18;;;11.50;99.90;;;;;;5113784;28;20401;-69
2021/12/07 11:45:31;;;;;;;15.00;4.38;;;11.50;99.40;;;;;;5114216;28;20084;-68
2021/12/07 11:47:58;;;;;;;11.48;3.72;;;11.50;99.90;;;;;;5112784;28;20123;-67
2021/12/07 11:50:26;;;;;;;12.57;4.00;;;;;;;;;;5111028;28;20060;-67
2021/12/07 11:52:58;;;;;;;12.23;4.25;;;11.50;99.90;;;;;;5107064;28;20047;-66
2021/12/07 11:55:24;;;;;;;11.30;4.30;;;11.90;99.90;;;;;;5113104;28;20127;-67
2021/12/07 11:57:50;;;;;;;11.00;3.50;;;11.80;99.90;;;;;;5113144;28;20047;-68
2021/12/07 12:00:19;;;;;;;11.00;3.75;;;11.90;99.90;;;;;;5114018;28;20122;-60
2021/12/07 12:02:45;;;;;;;10.13;3.92;;;11.60;99.90;;;;;;5111053;28;20119;-60
2021/12/07 12:05:11;;;;;;;10.02;3.67;;;;;;;;;;5113251;28;20130;-61
2021/12/07 12:07:41;;;;;;;12.82;3.63;;;11.50;99.00;;;;;;5113602;28;20050;-67
2021/12/07 12:10:07;;;;;;;10.05;3.35;;;;;;;;;;5112683;28;20058;-68
2021/12/07 12:13:00;;;;;;;8.85;3.13;;;11.70;98.30;;;;;;5113577;28;20092;-67
2021/12/07 12:15:51;;;;;;;11.07;3.92;;;11.50;98.30;;;;;;5105017;28;20043;-67
2021/12/07 12:18:41;;;;;;;10.30;3.30;;;11.70;98.50;;;;;;5113593;28;20537;-67
2021/12/07 12:21:19;;;;;;;7.50;3.10;;;11.80;98.60;;;;;;5113275;28;20390;-67
2021/12/07 12:23:50;;;;;;;9.35;3.60;;;11.80;99.90;;;;;;5092275;28;20059;-60
2021/12/07 12:26:21;;;;;;;10.48;3.47;;;11.30;99.90;;;;;;5112527;28;20048;-67
2021/12/07 12:28:48;;;;;;;8.93;3.42;;;11.70;99.90;;;;;;5113566;28;20488;-67
2021/12/07 12:31:14;;;;;;;8.15;3.17;;;11.10;99.90;;;;;;5108023;28;20412;-60
2021/12/07 12:33:53;;;;;;;9.13;3.53;;;11.70;99.90;;;;;;5111999;28;20043;-61
2021/12/07 12:36:20;;;;;;;6.97;2.90;;;11.40;99.90;;;;;;5114185;28;20452;-63
2021/12/07 12:38:58;;;;;;;9.90;4.00;;;11.10;99.90;;;;;;5111691;28;20051;-61
2021/12/07 12:41:26;;;;;;;9.05;3.78;;;11.50;99.90;;;;;;5106507;28;20453;-68
2021/12/07 12:43:58;;;;;;;8.23;3.83;;;11.30;99.70;;;;;;5111493;28;20040;-68
2021/12/07 12:46:28;;;;;;;15.52;4.18;;;11.20;99.80;;;;;;5113367;28;20082;-69
2021/12/07 12:48:56;;;;;;;15.38;4.00;;;11.30;99.80;;;;;;5112956;28;20116;-70
2021/12/07 12:51:22;;;;;;;9.88;3.60;;;;;;;;;;5113332;28;20473;-61
2021/12/07 12:53:49;;;;;;;15.55;4.13;;;11.00;99.90;;;;;;5105604;28;20040;-61
2021/12/07 12:56:20;;;;;;;14.20;3.72;;;10.90;99.90;;;;;;5093206;28;20066;-60
2021/12/07 12:58:54;;;;;;;17.88;4.25;;;10.70;99.20;;;;;;5100093;28;20032;-62
2021/12/07 13:01:20;;;;;;;17.48;4.03;;;10.80;99.90;;;;;;5116818;27;20496;-68
2021/12/07 13:03:52;;;;;;;15.40;4.00;;;;;;;;;;5114025;28;20119;-67
2021/12/07 13:06:45;;;;;;;17.55;4.22;;;11.10;99.50;;;;;;5097395;28;20040;-68
2021/12/07 13:09:20;;;;;;;13.50;4.05;;;10.90;98.70;;;;;;5098772;28;20167;-60
2021/12/07 13:11:56;;;;;;;12.73;3.63;;;10.90;99.90;;;;;;5116745;28;20401;-60
2021/12/07 13:14:22;;;;;;;9.02;3.00;;;10.90;99.90;;;;;;5105805;28;20043;-61
2021/12/07 13:17:07;;;;;;;11.60;3.22;;;11.00;99.90;;;;;;5113906;28;20135;-60
2021/12/07 13:19:53;;;;;;;10.18;3.60;;;10.90;99.90;;;;;;5106034;28;20039;-60
2021/12/07 13:22:18;;;;;;;8.75;3.50;;;11.00;99.90;;;;;;5096034;28;20044;-60
2021/12/07 13:24:46;;;;;;;11.48;3.15;;;;;;;;;;5098420;28;20370;-64
2021/12/07 13:27:14;;;;;;;10.82;3.28;;;10.90;99.90;;;;;;5096344;28;20040;-60
2021/12/07 13:29:51;;;;;;;10.07;3.03;;;10.80;99.90;;;;;;5097417;28;20052;-60
2021/12/07 13:32:17;;;;;;;11.32;3.42;;;10.90;99.90;;;;;;5116279;28;20047;-60
2021/12/07 13:34:43;;;;;;;9.90;3.50;;;10.70;99.90;;;;;;5116574;28;20473;-61
2021/12/07 13:37:09;;;;;;;11.82;3.83;;;11.10;98.60;;;;;;5108757;28;20075;-60
2021/12/07 13:39:49;;;;;;;15.60;3.33;;;10.90;98.60;;;;;;5108232;28;20052;-60
2021/12/07 13:42:18;;;;;;;10.50;3.40;;;10.70;99.90;;;;;;5096097;28;20044;-61
2021/12/07 13:44:48;;;;;;;11.52;3.35;;;10.70;98.30;;;;;;5100162;28;20066;-61
2021/12/07 13:47:15;;;;;;;10.50;3.35;;;;;;;;;;5109940;28;20044;-61
2021/12/07 13:49:43;;;;;;;11.00;3.60;;;10.80;98.90;;;;;;5111960;28;20067;-61
2021/12/07 13:52:19;;;;;;;8.43;3.38;;;;;;;;;;5116293;28;20078;-63
2021/12/07 13:54:47;;;;;;;10.15;3.75;;;10.50;99.10;;;;;;5114746;28;20043;-60
2021/12/07 13:57:21;;;;;;;13.82;4.05;;;10.50;99.90;;;;;;5115910;27;20104;-60
2021/12/07 14:00:00;;;;;;;13.00;3.30;;;;;;;;;;5110294;28;20049;-62
2021/12/07 14:02:26;;;;;;;12.25;3.40;;;10.30;99.10;;;;;;5107617;28;20489;-68
2021/12/07 14:05:05;;;;;;;11.05;3.17;;;;;;;;;;5113927;28;20122;-68
2021/12/07 14:07:32;;;;;;;10.05;2.90;;;10.10;99.90;;;;;;5113726;28;20039;-69
2021/12/07 14:10:10;;;;;;;14.63;3.80;;;10.40;98.60;;;;;;5114256;28;20047;-68
2021/12/07 14:12:36;;;;;;;11.70;3.88;;;10.30;99.90;;;;;;5115906;28;20055;-69
2021/12/07 14:15:16;;;;;;;10.95;4.10;;;10.30;99.90;;;;;;5112275;28;20043;-69
2021/12/07 14:17:48;;;;;;;14.50;4.28;;;10.20;99.00;;;;;;5115844;28;20035;-68
2021/12/07 14:20:21;;;;;;;16.48;4.80;;;10.00;99.90;;;;;;5114714;28;20062;-68
2021/12/07 14:22:47;;;;;;;12.98;4.43;;;9.90;99.40;;;;;;5106171;28;20044;-60
2021/12/07 14:25:16;;;;;;;10.65;4.55;;;10.00;99.90;;;;;;5103641;28;20460;-60
2021/12/07 14:27:46;;;;;;;15.65;4.78;;;9.60;99.90;;;;;;5107494;28;20036;-60
2021/12/07 14:30:13;;;;;;;13.70;4.65;;;9.60;99.90;;;;;;5113685;28;20036;-60
2021/12/07 14:32:41;;;;;;;14.57;4.75;;;9.70;99.70;;;;;;5112960;28;20039;-68
2021/12/07 14:35:07;;;;;;;14.23;4.07;;;9.50;99.90;;;;;;5114232;27;20123;-68
2021/12/07 14:37:33;;;;;;;13.80;4.25;;;;;;;;;;5113680;28;20165;-60
2021/12/07 14:39:59;;;;;;;16.00;4.78;;;9.70;99.90;;;;;;5106536;28;20107;-59
2021/12/07 14:42:25;;;;;;;14.10;4.70;;;9.50;99.90;;;;;;5094931;28;20131;-61
2021/12/07 14:44:54;;;;;;;12.43;4.22;;;9.60;99.90;;;;;;5108087;28;20043;-62
2021/12/07 14:47:20;;;;;;;15.30;3.97;;;;;;;;;;5094748;28;20185;-68
2021/12/07 14:49:48;;;;;;;12.52;4.32;;;10.00;99.00;;;;;;5105246;28;20043;-66
2021/12/07 14:52:15;;;;;;;11.93;4.30;;;;;;;;;;5113163;28;20058;-67
2021/12/07 14:54:41;;;;;;;12.82;4.80;;;9.80;99.90;;;;;;5106778;28;20116;-66
2021/12/07 14:57:07;;;;;;;12.55;4.10;;;9.90;99.90;;;;;;5108955;28;20072;-67
2021/12/07 14:59:35;;;;;;;10.23;3.65;;;9.60;99.40;;;;;;5113381;28;20536;-66